Time;durP1;ratioP1;P1;durP2;ratioP2;P2;SDS_P1;SDS_P2;PMS_P1;PMS_P2;Temp;Humidity;BMP_temperature;BMP_pressure;BME280_temperature;BME280_humidity;BME280_pressure;Samples;Min_cycle;Max_cycle;Signal;HPM_P1;HPM_P2
2022/06/19 00:00:01;;;;;;;10.50;1.40;;;14.10;99.90;;;;;;5075412;28;20036;-45
2022/06/19 00:02:27;;;;;;;9.13;1.42;;;13.90;99.90;;;;;;5073832;28;20036;-46
2022/06/19 00:04:55;;;;;;;6.28;1.17;;;13.30;99.90;;;;;;5075426;28;20479;-44
2022/06/19 00:07:22;;;;;;;9.38;1.70;;;13.10;99.90;;;;;;5074717;28;20036;-46
2022/06/19 00:09:48;;;;;;;7.65;1.20;;;13.20;99.90;;;;;;5071465;28;20055;-43
2022/06/19 00:12:16;;;;;;;8.43;1.20;;;14.40;99.90;;;;;;5073525;28;20478;-46
2022/06/19 00:14:42;;;;;;;8.00;1.30;;;13.10;99.90;;;;;;5072768;28;20040;-45
2022/06/19 00:17:09;;;;;;;8.13;1.35;;;13.70;99.90;;;;;;5074513;28;20085;-44
2022/06/19 00:19:35;;;;;;;10.15;1.75;;;12.90;99.90;;;;;;5073412;28;20050;-44
2022/06/19 00:22:01;;;;;;;13.50;1.42;;;13.50;99.90;;;;;;5073529;28;20048;-46
2022/06/19 00:24:29;;;;;;;13.00;2.67;;;13.30;99.90;;;;;;5072023;28;20575;-46
2022/06/19 00:26:55;;;;;;;11.02;1.58;;;13.20;99.90;;;;;;5073432;28;20566;-46
2022/06/19 00:29:23;;;;;;;14.13;2.10;;;13.10;99.90;;;;;;5073683;28;20516;-45
2022/06/19 00:31:48;;;;;;;9.93;1.48;;;13.10;99.90;;;;;;5072457;28;20032;-46
2022/06/19 00:34:14;;;;;;;11.07;1.60;;;13.20;99.90;;;;;;5072917;28;20043;-46
2022/06/19 00:36:40;;;;;;;15.68;1.90;;;13.20;99.90;;;;;;5073800;28;20047;-45
2022/06/19 00:39:06;;;;;;;13.23;2.10;;;13.10;99.90;;;;;;5073387;28;20032;-43
2022/06/19 00:41:35;;;;;;;12.57;2.03;;;13.10;99.90;;;;;;5071579;28;20055;-42
2022/06/19 00:44:05;;;;;;;11.52;1.70;;;13.00;99.90;;;;;;5072788;28;20511;-45
2022/06/19 00:46:52;;;;;;;9.98;2.13;;;13.20;99.90;;;;;;5073172;28;20067;-44
2022/06/19 00:49:39;;;;;;;10.85;1.67;;;13.10;99.90;;;;;;5072236;28;20559;-46
2022/06/19 00:52:20;;;;;;;7.78;1.73;;;13.30;99.90;;;;;;5072508;28;20040;-43
2022/06/19 00:55:06;;;;;;;17.35;2.03;;;13.20;99.90;;;;;;5072301;28;20561;-45
2022/06/19 00:57:36;;;;;;;12.63;1.95;;;13.30;99.90;;;;;;5073047;28;20040;-44
2022/06/19 01:00:16;;;;;;;8.82;1.42;;;13.30;99.90;;;;;;5073942;28;20123;-41
2022/06/19 01:02:44;;;;;;;9.65;2.50;;;13.20;99.90;;;;;;5072700;28;20035;-46
2022/06/19 01:05:12;;;;;;;11.60;1.88;;;14.50;99.90;;;;;;5072110;28;20036;-47
2022/06/19 01:07:40;;;;;;;11.40;1.83;;;14.20;99.90;;;;;;5073140;28;20104;-47
2022/06/19 01:10:06;;;;;;;17.95;2.53;;;13.50;99.90;;;;;;5073110;28;20307;-46
2022/06/19 01:12:32;;;;;;;10.63;1.63;;;13.50;99.90;;;;;;5073439;28;20714;-46
2022/06/19 01:15:06;;;;;;;12.05;2.15;;;13.50;99.90;;;;;;5074097;28;21241;-43
2022/06/19 01:17:34;;;;;;;16.35;2.45;;;13.40;99.90;;;;;;5072577;28;20074;-45
2022/06/19 01:20:03;;;;;;;14.32;1.98;;;14.00;99.90;;;;;;5073726;28;20547;-46
2022/06/19 01:22:46;;;;;;;15.38;2.47;;;13.60;99.90;;;;;;5071944;28;20044;-43
2022/06/19 01:25:18;;;;;;;14.90;2.17;;;13.70;99.90;;;;;;5071826;28;20036;-47
2022/06/19 01:30:41;;;;;;;10.77;1.83;;;13.90;99.90;;;;;;5071989;28;20121;-41
2022/06/19 01:33:12;;;;;;;11.18;2.03;;;13.70;99.90;;;;;;5072637;28;20039;-41
2022/06/19 01:35:41;;;;;;;15.30;2.53;;;13.90;99.90;;;;;;5072891;28;20036;-46
2022/06/19 01:38:13;;;;;;;19.17;3.22;;;13.80;99.90;;;;;;5072513;28;20075;-46
2022/06/19 01:40:40;;;;;;;;;;;13.60;99.90;;;;;;5069852;28;20040;-50
2022/06/19 01:43:05;;;;;;;14.25;3.00;;;13.90;99.90;;;;;;5071440;28;19981;-47
2022/06/19 01:45:32;;;;;;;16.85;3.42;;;13.70;99.90;;;;;;5071592;28;20181;-47
2022/06/19 01:47:58;;;;;;;24.75;3.35;;;13.40;99.90;;;;;;5071869;28;20069;-43
2022/06/19 01:50:27;;;;;;;19.27;3.78;;;13.70;99.90;;;;;;5071764;28;20098;-43
2022/06/19 01:53:03;;;;;;;19.63;3.28;;;13.70;99.90;;;;;;5071687;28;20039;-44
2022/06/19 01:55:29;;;;;;;20.55;2.97;;;13.30;99.90;;;;;;5076524;28;20508;-43
2022/06/19 01:57:57;;;;;;;15.88;2.78;;;13.40;99.90;;;;;;5075781;28;20541;-44
2022/06/19 02:00:29;;;;;;;14.80;3.10;;;13.50;99.90;;;;;;5075334;28;20043;-45
2022/06/19 02:03:07;;;;;;;20.92;2.50;;;13.20;99.90;;;;;;5076011;28;20097;-41
2022/06/19 02:05:35;;;;;;;17.88;2.90;;;14.00;99.90;;;;;;5075155;28;20036;-45
2022/06/19 02:08:02;;;;;;;18.10;2.90;;;14.00;99.90;;;;;;5076923;28;20063;-44
2022/06/19 02:10:30;;;;;;;20.02;2.63;;;14.10;99.90;;;;;;5075818;28;20126;-43
2022/06/19 02:12:58;;;;;;;17.20;3.90;;;13.20;99.90;;;;;;5075637;28;20710;-45
2022/06/19 02:15:24;;;;;;;14.70;1.95;;;13.50;99.90;;;;;;5076907;28;20471;-42
2022/06/19 02:17:52;;;;;;;14.85;2.63;;;13.20;99.90;;;;;;5077527;28;20431;-47
2022/06/19 02:20:20;;;;;;;21.08;3.15;;;13.60;99.90;;;;;;5071783;28;20044;-46
2022/06/19 02:22:46;;;;;;;17.45;2.63;;;13.10;99.90;;;;;;5076500;28;20044;-45
2022/06/19 02:25:14;;;;;;;16.95;2.70;;;14.20;99.90;;;;;;5075855;28;20040;-44
2022/06/19 02:27:40;;;;;;;17.42;2.72;;;13.00;99.90;;;;;;5075966;28;20044;-46
2022/06/19 02:30:09;;;;;;;19.58;2.75;;;14.10;99.90;;;;;;5076817;28;20119;-47
2022/06/19 02:32:39;;;;;;;18.65;2.58;;;13.10;99.90;;;;;;5076198;28;20389;-47
2022/06/19 02:35:06;;;;;;;22.55;2.75;;;13.80;99.90;;;;;;5076035;28;20040;-46
2022/06/19 02:37:40;;;;;;;16.42;2.40;;;13.10;99.90;;;;;;5075677;28;20036;-45
2022/06/19 02:40:33;;;;;;;19.48;3.38;;;14.30;99.90;;;;;;5074991;28;20113;-43
2022/06/19 02:42:59;;;;;;;17.25;2.95;;;14.80;99.90;;;;;;5076046;28;20048;-45
2022/06/19 02:45:29;;;;;;;26.60;3.03;;;13.10;99.90;;;;;;5074499;28;20044;-47
2022/06/19 02:47:58;;;;;;;18.67;2.67;;;13.10;99.90;;;;;;5073297;28;20043;-46
2022/06/19 02:50:31;;;;;;;18.77;2.50;;;13.90;99.90;;;;;;5075125;28;20047;-44
2022/06/19 02:52:57;;;;;;;17.58;2.60;;;13.10;99.90;;;;;;5074882;28;20036;-43
2022/06/19 02:55:23;;;;;;;18.55;2.85;;;15.20;99.90;;;;;;5075053;28;20058;-44
2022/06/19 02:57:50;;;;;;;17.42;3.22;;;13.10;99.90;;;;;;5073533;28;20471;-48
2022/06/19 03:00:22;;;;;;;19.67;3.08;;;13.20;99.90;;;;;;5074943;28;20579;-44
2022/06/19 03:02:49;;;;;;;;;;;12.90;99.90;;;;;;5073734;28;20424;-45
2022/06/19 03:05:20;;;;;;;14.38;2.42;;;13.10;99.90;;;;;;5074698;28;20568;-45
2022/06/19 03:07:46;;;;;;;22.03;4.00;;;13.10;99.90;;;;;;5076171;28;20257;-41
2022/06/19 03:10:12;;;;;;;13.43;2.50;;;14.30;99.90;;;;;;5074602;28;20047;-43
2022/06/19 03:12:40;;;;;;;15.98;2.65;;;13.10;99.90;;;;;;5073750;28;20693;-44
2022/06/19 03:15:06;;;;;;;19.13;2.40;;;13.10;99.90;;;;;;5075057;28;20101;-42
2022/06/19 03:17:32;;;;;;;18.25;3.53;;;13.10;99.90;;;;;;5074582;28;20036;-46
2022/06/19 03:20:00;;;;;;;18.95;2.35;;;13.90;99.90;;;;;;5071500;28;20425;-45
2022/06/19 03:22:25;;;;;;;15.73;2.22;;;13.20;99.90;;;;;;5075306;28;20085;-43
2022/06/19 03:24:51;;;;;;;15.95;2.63;;;13.00;99.90;;;;;;5056629;28;20508;-44
2022/06/19 03:27:19;;;;;;;14.35;2.33;;;13.30;99.90;;;;;;5075230;28;20036;-45
2022/06/19 03:29:46;;;;;;;14.00;2.33;;;13.30;99.90;;;;;;5074746;28;20062;-45
2022/06/19 03:32:13;;;;;;;18.65;2.72;;;12.80;99.90;;;;;;5072895;28;20044;-41
2022/06/19 03:34:40;;;;;;;19.77;2.78;;;12.80;99.90;;;;;;5074729;28;20539;-44
2022/06/19 03:37:06;;;;;;;19.35;3.00;;;12.80;99.90;;;;;;5075403;28;20155;-44
2022/06/19 03:39:32;;;;;;;20.83;2.70;;;12.90;99.90;;;;;;5074662;28;20408;-43
2022/06/19 03:41:58;;;;;;;14.60;2.15;;;12.30;99.90;;;;;;5075019;28;20052;-42
2022/06/19 03:44:27;;;;;;;15.90;2.63;;;12.60;99.90;;;;;;5074384;28;20055;-41
2022/06/19 03:46:53;;;;;;;18.20;2.85;;;12.50;99.90;;;;;;5075123;28;20075;-42
2022/06/19 03:49:18;;;;;;;18.55;2.80;;;12.70;99.90;;;;;;5074166;28;20147;-41
2022/06/19 03:51:44;;;;;;;20.05;2.80;;;12.30;99.90;;;;;;5073504;28;20032;-41
2022/06/19 03:54:10;;;;;;;15.27;2.85;;;12.00;99.90;;;;;;5071865;28;20040;-44
2022/06/19 03:56:36;;;;;;;17.17;2.88;;;12.20;99.90;;;;;;5073770;28;20044;-43
2022/06/19 03:59:04;;;;;;;19.02;3.35;;;12.10;99.90;;;;;;5074775;28;20047;-43
2022/06/19 04:01:32;;;;;;;20.63;2.75;;;12.10;99.90;;;;;;5073042;28;20400;-43
2022/06/19 04:03:58;;;;;;;19.58;3.03;;;12.30;99.90;;;;;;5073990;28;20442;-41
2022/06/19 04:06:31;;;;;;;17.65;3.45;;;13.30;99.90;;;;;;5073381;28;20060;-43
2022/06/19 04:08:57;;;;;;;20.70;3.45;;;12.10;99.90;;;;;;5073707;28;20043;-47
2022/06/19 04:11:25;;;;;;;23.48;3.55;;;13.30;99.90;;;;;;5072278;28;20790;-41
2022/06/19 04:13:53;;;;;;;29.20;4.68;;;13.20;99.90;;;;;;5073145;28;20397;-46
2022/06/19 04:16:27;;;;;;;15.48;2.50;;;13.30;99.90;;;;;;5072868;28;20059;-43
2022/06/19 04:18:56;;;;;;;13.95;2.28;;;13.40;99.90;;;;;;5074168;28;20040;-42
2022/06/19 04:21:25;;;;;;;21.52;3.40;;;12.00;99.90;;;;;;5073138;28;20595;-43
2022/06/19 04:23:56;;;;;;;24.80;2.90;;;14.00;99.90;;;;;;5071923;28;20042;-46
2022/06/19 04:26:23;;;;;;;15.07;2.73;;;11.90;99.90;;;;;;5072490;28;20115;-44
2022/06/19 04:28:49;;;;;;;18.00;3.30;;;11.80;99.90;;;;;;5072830;28;20317;-43
2022/06/19 04:31:14;;;;;;;19.65;3.38;;;11.60;99.90;;;;;;5071514;28;20123;-44
2022/06/19 04:33:40;;;;;;;19.08;2.83;;;11.80;99.90;;;;;;5073393;28;20508;-43
2022/06/19 04:36:09;;;;;;;17.48;2.72;;;10.90;99.90;;;;;;5072698;28;20036;-43
2022/06/19 04:38:39;;;;;;;20.02;3.25;;;13.70;99.90;;;;;;5073822;28;20340;-41
2022/06/19 04:41:14;;;;;;;18.80;3.03;;;13.00;99.90;;;;;;5070817;28;20056;-41
2022/06/19 04:43:39;;;;;;;13.93;2.90;;;11.50;99.90;;;;;;5072998;28;20073;-41
2022/06/19 04:46:06;;;;;;;13.43;2.53;;;11.50;99.90;;;;;;5073105;28;20047;-43
2022/06/19 04:48:34;;;;;;;21.35;3.72;;;12.30;99.90;;;;;;5072984;28;20539;-42
2022/06/19 04:51:00;;;;;;;18.45;2.97;;;13.70;99.90;;;;;;5074205;28;20040;-41
2022/06/19 04:53:27;;;;;;;19.83;2.83;;;11.60;99.90;;;;;;5074130;28;20048;-42
2022/06/19 04:55:54;;;;;;;19.73;2.85;;;11.80;99.90;;;;;;5071608;28;20043;-41
2022/06/19 04:58:24;;;;;;;22.83;3.13;;;11.90;99.90;;;;;;5072879;28;20100;-41
2022/06/19 05:00:51;;;;;;;21.10;3.30;;;11.60;99.90;;;;;;5071938;28;20621;-42
2022/06/19 05:03:18;;;;;;;21.75;3.38;;;11.80;99.90;;;;;;5072168;28;20036;-42
2022/06/19 05:05:44;;;;;;;26.30;3.67;;;12.00;99.90;;;;;;5072162;28;20128;-46
2022/06/19 05:08:11;;;;;;;20.58;3.15;;;12.00;99.90;;;;;;5071915;28;20040;-44
2022/06/19 05:10:37;;;;;;;18.85;3.25;;;13.50;99.90;;;;;;5069509;28;20040;-43
2022/06/19 05:13:05;;;;;;;17.77;2.65;;;12.00;99.90;;;;;;5072848;28;20040;-44
2022/06/19 05:15:32;;;;;;;18.30;3.22;;;11.90;99.90;;;;;;5072704;28;20044;-47
2022/06/19 05:17:57;;;;;;;19.63;3.20;;;13.00;99.90;;;;;;5071995;28;20533;-46
2022/06/19 05:20:23;;;;;;;22.05;3.22;;;12.90;99.90;;;;;;5072330;28;20040;-43
2022/06/19 05:22:51;;;;;;;19.20;2.80;;;13.30;99.90;;;;;;5072295;28;20435;-45
2022/06/19 05:25:16;;;;;;;20.88;3.13;;;12.10;99.90;;;;;;5069600;28;20444;-44
2022/06/19 05:27:42;;;;;;;19.67;2.85;;;12.00;99.90;;;;;;5071913;28;20036;-45
2022/06/19 05:30:11;;;;;;;17.88;2.72;;;13.90;99.90;;;;;;5071531;28;20040;-44
2022/06/19 05:32:37;;;;;;;25.63;3.83;;;12.10;99.90;;;;;;5072288;28;20043;-47
2022/06/19 05:35:03;;;;;;;24.98;2.83;;;12.10;99.90;;;;;;5071012;28;20040;-45
2022/06/19 05:37:28;;;;;;;15.77;2.40;;;12.30;99.90;;;;;;5072439;28;20047;-47
2022/06/19 05:39:54;;;;;;;15.55;2.05;;;12.00;99.90;;;;;;5072928;28;20480;-44
2022/06/19 05:42:20;;;;;;;21.35;2.17;;;13.20;99.90;;;;;;5071021;28;20051;-44
2022/06/19 05:44:48;;;;;;;20.00;2.05;;;12.10;99.90;;;;;;5070908;28;20043;-43
2022/06/19 05:47:13;;;;;;;16.52;2.08;;;12.60;99.90;;;;;;5071776;28;20405;-47
2022/06/19 05:49:39;;;;;;;19.48;2.47;;;12.10;99.90;;;;;;5073288;28;20058;-44
2022/06/19 05:52:17;;;;;;;23.75;2.75;;;12.70;99.90;;;;;;5070721;28;20044;-44
2022/06/19 05:54:44;;;;;;;16.55;2.10;;;12.60;99.90;;;;;;5072901;28;20508;-44
2022/06/19 05:57:10;;;;;;;18.77;2.35;;;11.90;99.90;;;;;;5073004;28;20040;-46
2022/06/19 05:59:36;;;;;;;16.33;2.53;;;11.80;99.90;;;;;;5071798;28;20032;-44
2022/06/19 06:02:01;;;;;;;21.05;3.25;;;13.50;99.90;;;;;;5071846;28;20047;-44
2022/06/19 06:04:27;;;;;;;19.05;3.05;;;11.80;99.90;;;;;;5072874;28;20126;-45
2022/06/19 06:06:53;;;;;;;23.20;2.90;;;13.20;99.90;;;;;;5072034;28;20028;-47
2022/06/19 06:09:19;;;;;;;19.00;2.35;;;11.60;99.90;;;;;;5072321;28;20080;-44
2022/06/19 06:11:45;;;;;;;14.32;2.47;;;12.30;99.90;;;;;;5071964;28;20036;-43
2022/06/19 06:14:13;;;;;;;21.67;2.78;;;11.60;99.90;;;;;;5071104;28;20687;-46
2022/06/19 06:16:40;;;;;;;16.02;2.47;;;11.60;99.90;;;;;;5070982;28;20044;-47
2022/06/19 06:19:06;;;;;;;16.20;2.45;;;11.90;99.90;;;;;;5071992;28;20063;-44
2022/06/19 06:21:31;;;;;;;18.85;2.90;;;12.20;99.90;;;;;;5070372;28;20452;-44
2022/06/19 06:23:59;;;;;;;17.17;2.40;;;11.50;99.90;;;;;;5070459;28;20046;-42
2022/06/19 06:26:29;;;;;;;16.67;1.92;;;12.40;99.90;;;;;;5070519;28;20480;-48
2022/06/19 06:28:56;;;;;;;14.85;2.05;;;12.00;99.90;;;;;;5069757;28;20101;-47
2022/06/19 06:31:22;;;;;;;19.70;2.00;;;13.80;99.90;;;;;;5071846;28;20595;-45
2022/06/19 06:33:48;;;;;;;13.43;1.80;;;12.00;99.90;;;;;;5070862;28;20555;-46
2022/06/19 06:36:14;;;;;;;15.05;1.95;;;12.70;99.90;;;;;;5069937;28;20051;-44
2022/06/19 06:38:42;;;;;;;16.13;1.98;;;12.20;99.90;;;;;;5070937;28;20094;-45
2022/06/19 06:41:10;;;;;;;17.52;2.75;;;13.30;99.90;;;;;;5074002;28;20055;-45
2022/06/19 06:43:38;;;;;;;17.25;2.78;;;14.30;99.90;;;;;;5073009;28;20048;-46
2022/06/19 06:46:12;;;;;;;17.25;2.47;;;12.10;99.90;;;;;;5072391;28;20047;-45
2022/06/19 06:48:38;;;;;;;18.58;2.75;;;12.40;99.90;;;;;;5072144;28;20040;-47
2022/06/19 06:51:06;;;;;;;18.02;2.63;;;12.50;99.90;;;;;;5073950;28;20059;-46
2022/06/19 06:53:32;;;;;;;17.83;2.90;;;13.40;99.90;;;;;;5074573;28;20427;-43
2022/06/19 06:55:58;;;;;;;16.70;2.13;;;12.20;99.90;;;;;;5073793;28;20036;-46
2022/06/19 06:58:23;;;;;;;19.58;2.50;;;12.20;99.90;;;;;;5076809;28;20039;-46
2022/06/19 07:00:54;;;;;;;21.08;2.35;;;13.50;99.90;;;;;;5074498;28;20051;-45
2022/06/19 07:03:20;;;;;;;20.00;2.72;;;12.40;99.90;;;;;;5074188;28;20063;-44
2022/06/19 07:05:46;;;;;;;19.00;2.38;;;12.20;99.90;;;;;;5074696;28;20047;-47
2022/06/19 07:08:11;;;;;;;15.07;2.28;;;12.70;99.90;;;;;;5075650;28;20044;-45
2022/06/19 07:10:37;;;;;;;20.30;2.78;;;13.30;99.90;;;;;;5074833;28;20032;-46
2022/06/19 07:13:02;;;;;;;14.48;2.17;;;13.20;99.90;;;;;;5073888;28;20040;-44
2022/06/19 07:15:28;;;;;;;17.83;2.10;;;12.50;99.90;;;;;;5075742;28;20091;-43
2022/06/19 07:17:54;;;;;;;16.38;2.10;;;13.70;99.90;;;;;;5074199;28;20036;-48
2022/06/19 07:20:20;;;;;;;16.60;2.38;;;12.90;99.90;;;;;;5075108;28;20553;-47
2022/06/19 07:22:45;;;;;;;14.82;2.22;;;13.30;99.90;;;;;;5074682;28;20123;-48
2022/06/19 07:25:20;;;;;;;13.68;2.67;;;13.60;99.90;;;;;;5073710;28;20703;-48
2022/06/19 07:27:46;;;;;;;16.52;2.42;;;12.80;99.90;;;;;;5073510;28;20071;-47
2022/06/19 07:30:20;;;;;;;13.98;2.20;;;12.90;99.90;;;;;;5072990;28;21393;-45
2022/06/19 07:32:46;;;;;;;13.98;1.85;;;12.60;99.90;;;;;;5073565;28;20063;-46
2022/06/19 07:35:12;;;;;;;18.55;2.10;;;14.40;99.90;;;;;;5073424;28;20063;-47
2022/06/19 07:37:38;;;;;;;14.38;2.25;;;13.60;99.90;;;;;;5072073;28;20131;-47
2022/06/19 07:40:04;;;;;;;15.73;2.45;;;12.90;99.90;;;;;;5074063;28;20032;-46
2022/06/19 07:42:30;;;;;;;15.45;2.33;;;12.80;99.90;;;;;;5073717;28;20048;-47
2022/06/19 07:44:55;;;;;;;12.95;2.50;;;13.70;99.90;;;;;;5072989;28;20073;-46
2022/06/19 07:50:09;;;;;;;12.30;2.08;;;12.80;99.90;;;;;;5071390;28;20054;-46
2022/06/19 07:52:40;;;;;;;13.43;2.00;;;13.00;99.90;;;;;;5072532;28;20038;-44
2022/06/19 07:55:07;;;;;;;11.18;2.08;;;13.40;99.90;;;;;;5072884;28;20126;-47
2022/06/19 07:57:34;;;;;;;11.68;2.60;;;13.10;99.90;;;;;;5072585;28;20072;-44
2022/06/19 08:00:03;;;;;;;12.63;1.90;;;13.00;99.90;;;;;;5073531;28;20036;-46
2022/06/19 08:02:28;;;;;;;11.88;2.00;;;13.10;99.90;;;;;;5072690;28;20044;-45
2022/06/19 08:04:58;;;;;;;14.70;2.28;;;13.00;99.90;;;;;;5074224;28;20282;-43
2022/06/19 08:07:24;;;;;;;15.60;2.15;;;13.40;99.90;;;;;;5073825;28;20829;-42
2022/06/19 08:09:50;;;;;;;11.80;1.88;;;13.60;99.90;;;;;;5073790;28;20039;-43
2022/06/19 08:12:15;;;;;;;12.93;1.45;;;14.90;99.90;;;;;;5072578;28;20552;-43
2022/06/19 08:14:41;;;;;;;11.57;2.08;;;13.40;99.90;;;;;;5073105;28;20047;-42
2022/06/19 08:17:07;;;;;;;10.93;2.10;;;13.10;99.90;;;;;;5073300;28;20044;-45
2022/06/19 08:19:34;;;;;;;12.75;1.90;;;12.90;99.90;;;;;;5072795;28;20044;-45
2022/06/19 08:22:00;;;;;;;11.57;1.77;;;14.40;99.90;;;;;;5072420;28;20043;-46
2022/06/19 08:24:26;;;;;;;16.15;1.75;;;14.00;99.90;;;;;;5073699;28;20032;-45
2022/06/19 08:26:55;;;;;;;11.95;1.98;;;13.80;99.90;;;;;;5072494;28;20120;-43
2022/06/19 08:29:21;;;;;;;16.67;2.30;;;13.80;99.90;;;;;;5072597;28;20496;-42
2022/06/19 08:31:47;;;;;;;9.00;2.05;;;13.40;99.90;;;;;;5072495;28;20035;-43
2022/06/19 08:34:14;;;;;;;14.93;2.72;;;14.50;99.90;;;;;;5073250;28;20040;-46
2022/06/19 08:36:40;;;;;;;15.32;2.70;;;13.60;99.90;;;;;;5072683;28;20511;-43
2022/06/19 08:39:11;;;;;;;16.10;2.00;;;13.70;99.90;;;;;;5072011;28;20047;-43
2022/06/19 08:41:59;;;;;;;15.43;3.05;;;13.70;99.90;;;;;;5072934;28;20766;-45
2022/06/19 08:44:33;;;;;;;12.40;2.45;;;13.60;99.90;;;;;;5071340;28;20077;-45
2022/06/19 08:47:08;;;;;;;10.23;1.85;;;13.60;99.90;;;;;;5070868;28;20040;-45
2022/06/19 08:49:51;;;;;;;17.58;2.10;;;13.50;99.90;;;;;;5071038;28;20093;-42
2022/06/19 08:52:46;;;;;;;20.17;2.65;;;13.70;99.90;;;;;;5071484;28;20040;-46
2022/06/19 08:55:36;;;;;;;13.50;2.50;;;13.30;99.90;;;;;;5071787;28;20040;-44
2022/06/19 08:58:40;;;;;;;13.25;1.80;;;13.50;99.90;;;;;;5070878;28;20142;-42
2022/06/19 09:01:34;;;;;;;13.50;2.50;;;13.50;99.90;;;;;;5004628;28;20042;-42
2022/06/19 09:07:26;;;;;;;11.93;2.05;;;13.40;99.90;;;;;;5003236;28;20072;-45
2022/06/19 09:10:05;;;;;;;7.82;1.33;;;13.50;99.90;;;;;;5001559;28;20120;-45
2022/06/19 09:12:55;;;;;;;10.90;1.60;;;13.40;99.90;;;;;;5005792;28;20046;-44
2022/06/19 09:15:35;;;;;;;9.25;1.65;;;13.80;99.90;;;;;;5003565;28;20054;-44
2022/06/19 09:18:02;;;;;;;7.97;1.80;;;13.90;99.90;;;;;;5007147;28;20044;-47
2022/06/19 09:20:42;;;;;;;10.02;1.42;;;16.10;99.90;;;;;;5000999;28;20658;-45
2022/06/19 09:23:35;;;;;;;8.55;1.52;;;15.30;99.90;;;;;;5005705;28;20081;-45
2022/06/19 09:26:17;;;;;;;8.77;1.33;;;14.10;99.90;;;;;;5004354;28;20124;-45
2022/06/19 09:29:02;;;;;;;7.40;1.52;;;14.30;99.90;;;;;;5002529;28;20057;-43
2022/06/19 09:31:31;;;;;;;9.18;1.60;;;14.30;99.90;;;;;;5001839;28;20045;-48
2022/06/19 09:34:06;;;;;;;5.95;1.10;;;14.30;99.90;;;;;;5005987;28;20045;-45
2022/06/19 09:36:41;;;;;;;10.15;1.50;;;16.50;99.90;;;;;;5070137;28;20440;-43
2022/06/19 09:39:33;;;;;;;10.85;1.40;;;14.30;99.90;;;;;;5069820;28;20040;-46
2022/06/19 09:42:04;;;;;;;7.95;1.40;;;14.30;99.90;;;;;;5071532;28;20059;-45
2022/06/19 09:44:36;;;;;;;8.50;1.73;;;14.40;99.90;;;;;;5070634;28;20047;-42
2022/06/19 09:47:18;;;;;;;8.43;1.50;;;15.20;99.90;;;;;;5071278;28;20492;-46
2022/06/19 09:49:58;;;;;;;9.13;1.30;;;15.90;99.90;;;;;;5070531;28;20075;-45
2022/06/19 09:52:40;;;;;;;5.80;1.20;;;14.30;99.90;;;;;;5070624;28;20083;-45
2022/06/19 09:55:25;;;;;;;8.27;1.33;;;14.20;99.90;;;;;;5071034;28;20052;-45
2022/06/19 09:58:04;;;;;;;7.28;1.38;;;14.40;99.90;;;;;;5070839;28;20513;-47
2022/06/19 10:00:34;;;;;;;9.75;1.88;;;14.60;99.90;;;;;;5070915;28;20047;-45
2022/06/19 10:03:18;;;;;;;12.45;1.42;;;15.60;99.90;;;;;;5071111;28;20093;-46
2022/06/19 10:05:57;;;;;;;7.93;1.30;;;14.60;99.90;;;;;;5071650;28;20036;-46
2022/06/19 10:08:32;;;;;;;8.43;1.73;;;14.90;99.90;;;;;;5072182;28;20048;-47
2022/06/19 10:11:04;;;;;;;7.40;1.40;;;15.60;99.90;;;;;;5072752;28;20456;-43
2022/06/19 10:14:01;;;;;;;7.07;1.55;;;15.10;99.90;;;;;;5072054;28;20036;-46
2022/06/19 10:16:37;;;;;;;6.03;1.30;;;17.00;99.90;;;;;;5012178;28;20734;-47
2022/06/19 10:19:18;;;;;;;6.80;1.40;;;15.00;99.90;;;;;;5012632;28;20060;-45
2022/06/19 10:22:15;;;;;;;7.07;1.13;;;15.30;99.90;;;;;;5011122;28;20056;-44
2022/06/19 10:25:25;;;;;;;5.65;0.90;;;15.00;99.90;;;;;;5010047;28;20464;-45
2022/06/19 10:28:18;;;;;;;5.32;1.00;;;15.10;99.90;;;;;;4990634;28;20952;-41
2022/06/19 10:31:16;;;;;;;5.03;1.17;;;14.60;99.90;;;;;;4991206;28;20229;-42
2022/06/19 10:34:20;;;;;;;7.72;1.10;;;15.50;99.90;;;;;;4988906;28;20176;-45
2022/06/19 10:37:21;;;;;;;4.95;1.00;;;15.80;99.90;;;;;;4990096;28;20585;-45
2022/06/19 10:40:09;;;;;;;5.82;1.30;;;16.00;99.90;;;;;;4990336;28;20092;-45
2022/06/19 10:42:45;;;;;;;6.15;1.00;;;16.20;99.90;;;;;;4989439;28;20365;-44
2022/06/19 10:45:24;;;;;;;5.15;0.90;;;16.30;99.90;;;;;;4989531;28;20050;-43
2022/06/19 10:48:05;;;;;;;8.82;1.35;;;16.30;99.90;;;;;;4989859;28;20448;-45
2022/06/19 10:50:41;;;;;;;4.10;0.98;;;16.50;99.90;;;;;;4990169;28;20270;-44
2022/06/19 10:53:39;;;;;;;4.93;1.10;;;16.20;99.90;;;;;;5009927;28;20092;-46
2022/06/19 10:56:40;;;;;;;7.75;1.02;;;16.10;99.90;;;;;;5035076;28;20074;-45
2022/06/19 10:59:06;;;;;;;6.07;0.85;;;16.30;99.90;;;;;;4932609;29;20548;-42
2022/06/19 11:05:17;;;;;;;3.65;1.08;;;16.20;99.90;;;;;;4945243;28;20049;-42
2022/06/19 11:07:43;;;;;;;4.88;0.85;;;16.40;99.90;;;;;;4949375;28;20057;-46
2022/06/19 11:10:26;;;;;;;5.47;0.70;;;16.40;99.90;;;;;;4951165;28;20058;-42
2022/06/19 11:12:58;;;;;;;5.57;0.88;;;16.20;99.90;;;;;;4951356;28;20030;-42
2022/06/19 11:15:36;;;;;;;2.78;0.73;;;16.20;99.90;;;;;;4951920;28;20046;-43
2022/06/19 11:18:20;;;;;;;4.82;0.70;;;16.00;99.90;;;;;;4950409;28;20054;-46
2022/06/19 11:21:01;;;;;;;5.55;1.08;;;15.60;99.90;;;;;;4953401;28;20058;-46
2022/06/19 11:23:38;;;;;;;2.80;0.80;;;15.50;99.90;;;;;;4950125;28;20771;-44
2022/06/19 11:26:04;;;;;;;4.35;1.00;;;15.40;99.90;;;;;;4950420;28;20131;-44
2022/06/19 11:28:45;;;;;;;6.22;1.02;;;15.30;99.90;;;;;;4925317;28;20113;-42
2022/06/19 11:31:29;;;;;;;6.05;1.00;;;15.30;99.90;;;;;;4953160;28;20137;-42
2022/06/19 11:33:59;;;;;;;7.03;1.15;;;15.20;99.90;;;;;;4953538;28;20046;-43
2022/06/19 11:36:39;;;;;;;4.40;1.10;;;15.30;99.90;;;;;;5023321;28;20052;-47
2022/06/19 11:39:35;;;;;;;6.30;0.90;;;15.10;99.90;;;;;;5076788;28;20108;-41
2022/06/19 11:42:20;;;;;;;6.00;1.33;;;14.90;99.90;;;;;;5074899;28;20055;-47
2022/06/19 11:44:52;;;;;;;4.47;1.02;;;14.80;99.90;;;;;;5073365;28;20524;-47
2022/06/19 11:47:32;;;;;;;3.85;0.93;;;14.90;99.90;;;;;;5073808;28;20764;-42
2022/06/19 11:50:13;;;;;;;7.78;1.50;;;14.80;99.90;;;;;;5074068;28;20048;-43
2022/06/19 11:52:41;;;;;;;8.23;1.17;;;14.90;99.90;;;;;;5074241;28;20367;-44
2022/06/19 11:55:37;;;;;;;6.40;1.42;;;16.00;99.90;;;;;;5074736;28;20124;-43
2022/06/19 11:58:16;;;;;;;7.93;1.40;;;15.00;99.90;;;;;;5072857;28;20408;-46
2022/06/19 12:00:44;;;;;;;10.07;1.70;;;15.20;99.90;;;;;;5074136;28;20050;-45
2022/06/19 12:03:28;;;;;;;8.25;1.30;;;14.90;99.90;;;;;;5073151;28;20113;-41
2022/06/19 12:05:58;;;;;;;8.80;1.75;;;14.90;99.90;;;;;;5073862;28;20055;-46
2022/06/19 12:08:31;;;;;;;11.20;2.25;;;14.70;99.90;;;;;;5073739;28;20113;-45
2022/06/19 12:11:01;;;;;;;9.75;1.73;;;17.00;99.90;;;;;;5073639;28;20036;-43
2022/06/19 12:13:31;;;;;;;10.25;2.03;;;16.70;99.90;;;;;;5073597;28;20047;-46
2022/06/19 12:16:20;;;;;;;9.05;1.55;;;14.50;99.90;;;;;;5073326;28;20153;-42
2022/06/19 12:18:46;;;;;;;8.55;1.42;;;15.30;99.90;;;;;;5073328;28;20044;-47
2022/06/19 12:21:20;;;;;;;9.73;1.60;;;15.70;99.90;;;;;;5072850;28;20039;-46
2022/06/19 12:24:02;;;;;;;6.57;1.33;;;15.00;99.90;;;;;;5073378;28;20571;-44
2022/06/19 12:26:37;;;;;;;8.15;1.58;;;15.50;99.90;;;;;;5072777;28;20118;-46
2022/06/19 12:29:31;;;;;;;6.88;1.48;;;16.00;99.90;;;;;;5072774;28;20040;-47
2022/06/19 12:32:07;;;;;;;5.78;1.15;;;16.30;99.90;;;;;;5074044;28;20420;-46
2022/06/19 12:34:44;;;;;;;10.00;2.53;;;17.60;99.90;;;;;;5073556;28;20043;-46
2022/06/19 12:37:17;;;;;;;10.77;1.95;;;16.60;99.90;;;;;;5072639;28;20040;-47
2022/06/19 12:39:43;;;;;;;5.25;1.20;;;16.70;99.90;;;;;;5074418;28;20507;-48
2022/06/19 12:42:46;;;;;;;8.02;1.48;;;18.20;99.90;;;;;;5073266;28;20084;-45
2022/06/19 12:45:31;;;;;;;10.57;1.33;;;17.30;99.90;;;;;;5072761;28;20044;-47
2022/06/19 12:48:33;;;;;;;7.85;1.35;;;17.20;99.90;;;;;;5072925;28;20993;-48
2022/06/19 12:51:12;;;;;;;7.13;2.40;;;17.20;99.90;;;;;;5003631;28;20057;-45
2022/06/19 12:53:47;;;;;;;5.93;1.40;;;17.40;99.90;;;;;;5006075;28;20654;-47
2022/06/19 12:56:38;;;;;;;11.05;1.55;;;17.30;99.90;;;;;;4988874;28;20050;-46
2022/06/19 12:59:28;;;;;;;4.93;0.98;;;17.20;99.90;;;;;;5006751;28;20469;-46
2022/06/19 13:01:58;;;;;;;10.80;1.63;;;17.70;99.90;;;;;;5005212;28;20049;-44
2022/06/19 13:04:51;;;;;;;4.38;0.95;;;19.10;99.90;;;;;;5007555;28;20041;-45
2022/06/19 13:07:40;;;;;;;7.60;1.50;;;17.10;99.90;;;;;;5005214;28;20356;-47
2022/06/19 13:10:35;;;;;;;8.52;1.80;;;17.20;99.90;;;;;;5002924;28;20576;-46
2022/06/19 13:13:38;;;;;;;5.30;1.50;;;17.20;99.90;;;;;;5006337;28;20041;-46
2022/06/19 13:16:26;;;;;;;8.10;1.50;;;17.40;99.90;;;;;;5004408;28;20068;-48
2022/06/19 13:19:35;;;;;;;7.35;1.40;;;17.60;99.90;;;;;;5004864;28;20064;-48